createdAt,value
2022-09-12T00:02:34.368Z,12.57
2022-09-12T00:07:36.017Z,10.93
2022-09-12T00:12:37.725Z,15.90
2022-09-12T00:17:39.710Z,46.80
2022-09-12T00:22:41.392Z,20.65
2022-09-12T00:27:43.031Z,28.08
2022-09-12T00:32:45.023Z,20.50
2022-09-12T00:37:46.765Z,18.60
2022-09-12T00:42:48.364Z,14.68
2022-09-12T00:47:50.480Z,12.13
2022-09-12T00:53:03.783Z,32.03
2022-09-12T00:58:10.792Z,14.15
2022-09-12T01:03:15.889Z,22.73
2022-09-12T01:08:17.869Z,30.98
2022-09-12T01:13:19.798Z,21.95
2022-09-12T01:18:47.627Z,20.25
2022-09-12T01:23:58.329Z,70.68
2022-09-12T01:29:22.676Z,21.97
2022-09-12T01:34:28.202Z,25.38
2022-09-12T01:40:02.043Z,40.50
2022-09-12T01:55:51.399Z,80.22
2022-09-12T02:01:08.684Z,54.47
2022-09-12T02:06:30.381Z,27.42
2022-09-12T02:11:35.449Z,12.52
2022-09-12T02:16:48.019Z,28.02
2022-09-12T02:21:55.816Z,26.88
2022-09-12T02:27:01.702Z,28.45
2022-09-12T02:32:08.199Z,40.63
2022-09-12T02:37:45.838Z,57.53
2022-09-12T02:48:19.873Z,33.83
2022-09-12T02:53:30.827Z,40.50
2022-09-12T02:58:35.328Z,28.45
2022-09-12T03:04:06.946Z,13.10
2022-09-12T03:09:16.186Z,42.40
2022-09-12T03:14:36.613Z,28.15
2022-09-12T03:20:03.613Z,42.72
2022-09-12T03:25:21.013Z,46.83
2022-09-12T03:30:23.351Z,62.45
2022-09-12T03:35:25.711Z,40.22
2022-09-12T03:40:27.863Z,36.80
2022-09-12T03:45:30.010Z,32.65
2022-09-12T03:50:32.229Z,16.83
2022-09-12T03:55:34.453Z,31.98
2022-09-12T04:00:37.626Z,20.75
2022-09-12T04:05:39.381Z,25.05
2022-09-12T04:10:41.353Z,25.77
2022-09-12T04:15:43.117Z,9.27
2022-09-12T04:20:44.778Z,16.58
2022-09-12T04:25:58.669Z,10.20
2022-09-12T04:31:12.290Z,10.30
2022-09-12T04:36:16.714Z,34.72
2022-09-12T04:41:26.271Z,40.40
2022-09-12T04:46:32.459Z,56.15
2022-09-12T04:51:37.076Z,31.77
2022-09-12T04:56:40.536Z,28.20
2022-09-12T05:01:43.716Z,95.50
2022-09-12T05:06:47.432Z,27.02
2022-09-12T05:12:05.795Z,36.13
2022-09-12T05:17:07.727Z,27.45
2022-09-12T05:22:09.784Z,34.75
2022-09-12T05:27:11.526Z,22.23
2022-09-12T05:32:13.309Z,22.35
2022-09-12T05:37:15.030Z,27.58
2022-09-12T05:42:16.750Z,15.07
2022-09-12T05:47:19.339Z,99.93
2022-09-12T05:52:21.071Z,29.77
2022-09-12T05:57:22.767Z,45.13
2022-09-12T06:02:24.516Z,45.10
2022-09-12T06:07:26.359Z,36.00
2022-09-12T06:12:30.955Z,28.38
2022-09-12T06:17:32.664Z,22.13
2022-09-12T06:22:34.674Z,20.85
2022-09-12T06:27:36.338Z,12.30
2022-09-12T06:32:38.009Z,8.40
2022-09-12T06:37:40.666Z,13.02
2022-09-12T06:42:42.337Z,12.98
2022-09-12T06:47:44.132Z,12.13
2022-09-12T06:52:48.660Z,11.60
2022-09-12T06:57:51.591Z,14.48
2022-09-12T07:02:58.844Z,12.23
2022-09-12T07:08:00.498Z,11.75
2022-09-12T07:13:02.163Z,11.68
2022-09-12T07:18:04.306Z,11.05
2022-09-12T07:23:05.961Z,9.70
2022-09-12T07:28:07.650Z,13.10
2022-09-12T07:33:09.324Z,11.48
2022-09-12T07:38:11.000Z,11.30
2022-09-12T07:43:12.812Z,10.25
2022-09-12T07:48:14.529Z,10.75
2022-09-12T07:53:16.190Z,11.27
2022-09-12T07:58:17.856Z,15.77
2022-09-12T08:03:19.650Z,15.98
2022-09-12T08:08:21.407Z,14.55
2022-09-12T08:13:23.257Z,11.40
2022-09-12T08:18:25.061Z,8.88
2022-09-12T08:23:28.642Z,9.00
2022-09-12T08:28:31.945Z,6.38
2022-09-12T08:33:34.475Z,4.38
2022-09-12T08:38:37.664Z,4.72
2022-09-12T08:43:57.352Z,6.72
2022-09-12T08:49:01.366Z,4.63
2022-09-12T08:54:04.573Z,3.40
2022-09-12T08:59:08.434Z,5.80
2022-09-12T09:04:34.393Z,4.80
2022-09-12T09:09:59.118Z,3.05
2022-09-12T09:15:28.389Z,2.95
2022-09-12T09:20:46.688Z,4.22
2022-09-12T09:26:14.673Z,3.20
2022-09-12T09:31:24.278Z,4.47
2022-09-12T09:36:52.574Z,3.05
2022-09-12T09:42:19.240Z,5.03
2022-09-12T09:47:20.983Z,2.47
2022-09-12T09:52:28.416Z,4.15
2022-09-12T09:57:36.105Z,2.75
2022-09-12T10:02:38.491Z,2.33
2022-09-12T10:07:50.961Z,2.45
2022-09-12T10:13:07.638Z,2.60
2022-09-12T10:18:09.941Z,2.33
2022-09-12T10:23:37.590Z,4.35
2022-09-12T10:28:43.439Z,2.30
2022-09-12T10:33:53.762Z,2.60
2022-09-12T10:39:01.314Z,4.38
2022-09-12T10:44:16.233Z,6.82
2022-09-12T10:49:22.965Z,3.40
2022-09-12T10:54:27.208Z,2.70
2022-09-12T10:59:58.924Z,3.80
2022-09-12T11:05:06.623Z,3.63
2022-09-12T11:10:34.420Z,2.90
2022-09-12T11:16:10.936Z,3.22
2022-09-12T11:21:23.921Z,1.83
2022-09-12T11:26:44.667Z,2.40
2022-09-12T11:31:51.873Z,1.93
2022-09-12T11:37:20.043Z,1.70
2022-09-12T11:42:35.269Z,1.90
2022-09-12T11:47:37.862Z,1.63
2022-09-12T11:52:40.648Z,1.40
2022-09-12T11:57:45.792Z,3.05
2022-09-12T12:03:18.079Z,1.33
2022-09-12T12:13:42.280Z,2.65
2022-09-12T12:18:44.555Z,1.38
2022-09-12T12:24:07.486Z,1.90
2022-09-12T12:29:18.075Z,1.50
2022-09-12T12:39:43.822Z,1.05
2022-09-12T12:44:45.582Z,1.48
2022-09-12T12:49:58.404Z,4.35
2022-09-12T12:55:04.798Z,1.02
2022-09-12T13:00:28.134Z,2.22
2022-09-12T13:05:38.264Z,0.80
2022-09-12T13:10:53.112Z,1.63
2022-09-12T13:15:54.933Z,1.45
2022-09-12T13:21:02.524Z,1.30
2022-09-12T13:26:11.642Z,1.40
2022-09-12T13:31:24.199Z,0.98
2022-09-12T13:36:25.898Z,1.40
2022-09-12T13:41:53.090Z,1.42
2022-09-12T13:46:58.907Z,1.05
2022-09-12T13:52:08.411Z,1.30
2022-09-12T13:57:31.758Z,1.80
2022-09-12T14:02:35.826Z,1.20
2022-09-12T14:07:56.268Z,1.30
2022-09-12T14:13:00.865Z,1.10
2022-09-12T14:18:04.473Z,1.02
2022-09-12T14:23:27.588Z,1.10
2022-09-12T14:28:31.102Z,0.60
2022-09-12T14:33:47.925Z,1.38
2022-09-12T14:38:59.428Z,1.42
2022-09-12T14:44:05.251Z,1.88
2022-09-12T14:49:13.484Z,0.80
2022-09-12T14:54:30.428Z,0.80
2022-09-12T14:59:35.087Z,1.58
2022-09-12T15:05:08.718Z,1.05
2022-09-12T15:10:25.496Z,0.98
2022-09-12T15:15:27.169Z,2.70
2022-09-12T15:20:29.014Z,1.73
2022-09-12T15:25:30.715Z,1.10
2022-09-12T15:30:32.432Z,1.92
2022-09-12T15:35:34.599Z,1.25
2022-09-12T15:40:36.316Z,0.95
2022-09-12T15:45:38.046Z,0.80
2022-09-12T15:50:40.938Z,0.90
2022-09-12T15:55:42.702Z,1.20
2022-09-12T16:00:44.462Z,0.98
2022-09-12T16:05:46.162Z,1.45
2022-09-12T16:10:53.043Z,0.98
2022-09-12T16:15:58.696Z,1.48
2022-09-12T16:21:00.452Z,1.50
2022-09-12T16:26:05.229Z,1.10
2022-09-12T16:31:08.520Z,1.08
2022-09-12T16:36:13.086Z,1.20
2022-09-12T16:41:16.074Z,3.42
2022-09-12T16:46:20.663Z,7.10
2022-09-12T16:51:28.146Z,3.95
2022-09-12T16:56:29.930Z,1.73
2022-09-12T17:01:31.618Z,1.20
2022-09-12T17:06:33.934Z,1.80
2022-09-12T17:11:38.159Z,1.33
2022-09-12T17:16:45.942Z,1.02
2022-09-12T17:21:50.135Z,1.38
2022-09-12T17:26:53.476Z,1.83
2022-09-12T17:31:55.694Z,2.85
2022-09-12T17:36:57.348Z,4.50
2022-09-12T17:42:00.129Z,4.97
2022-09-12T17:47:02.302Z,4.18
2022-09-12T17:52:03.991Z,1.40
2022-09-12T17:57:06.311Z,19.38
2022-09-12T18:02:14.531Z,5.13
2022-09-12T18:07:20.375Z,4.35
2022-09-12T18:12:22.274Z,5.93
2022-09-12T18:17:23.953Z,4.60
2022-09-12T18:22:25.774Z,6.05
2022-09-12T18:27:27.571Z,4.05
2022-09-12T18:32:29.254Z,4.35
2022-09-12T18:37:30.907Z,4.35
2022-09-12T18:42:32.649Z,2.40
2022-09-12T18:47:34.320Z,5.85
2022-09-12T18:52:35.990Z,6.03
2022-09-12T18:57:37.711Z,7.25
2022-09-12T19:02:39.641Z,6.07
2022-09-12T19:07:41.373Z,8.57
2022-09-12T19:12:43.432Z,8.50
2022-09-12T19:17:45.248Z,9.82
2022-09-12T19:22:47.126Z,5.07
2022-09-12T19:27:48.828Z,6.68
2022-09-12T19:32:50.539Z,3.60
2022-09-12T19:37:52.309Z,6.28
2022-09-12T19:42:53.982Z,3.50
2022-09-12T19:47:55.660Z,20.48
2022-09-12T19:52:58.225Z,9.38
2022-09-12T19:57:59.912Z,7.63
2022-09-12T20:03:02.171Z,8.23
2022-09-12T20:08:03.928Z,16.52
2022-09-12T20:13:05.999Z,3.58
2022-09-12T20:18:07.691Z,9.73
2022-09-12T20:23:09.512Z,7.95
2022-09-12T20:28:11.183Z,8.95
2022-09-12T20:33:12.841Z,9.10
2022-09-12T20:38:14.513Z,10.43
2022-09-12T20:43:16.179Z,5.38
2022-09-12T20:48:17.966Z,7.15
2022-09-12T20:53:19.862Z,9.18
2022-09-12T20:58:22.858Z,10.63
2022-09-12T21:03:25.507Z,12.57
2022-09-12T21:08:27.760Z,4.30
2022-09-12T21:13:29.494Z,3.30
2022-09-12T21:18:32.372Z,13.10
2022-09-12T21:23:34.653Z,12.75
2022-09-12T21:28:36.516Z,13.38
2022-09-12T21:33:38.296Z,9.55
2022-09-12T21:38:40.051Z,6.68
2022-09-12T21:43:43.265Z,10.82
2022-09-12T21:48:45.279Z,4.78
2022-09-12T21:53:46.989Z,7.57
2022-09-12T21:58:48.657Z,3.58
2022-09-12T22:03:50.487Z,6.18
2022-09-12T22:08:52.141Z,5.25
2022-09-12T22:13:54.019Z,6.05
2022-09-12T22:18:56.124Z,5.60
2022-09-12T22:24:16.737Z,10.13
2022-09-12T22:29:18.751Z,4.25
2022-09-12T22:34:20.505Z,5.85
2022-09-12T22:39:22.238Z,3.67
2022-09-12T22:44:24.019Z,3.22
2022-09-12T22:49:25.717Z,7.65
2022-09-12T22:54:27.968Z,5.30
2022-09-12T22:59:29.893Z,6.20
2022-09-12T23:04:32.847Z,4.13
2022-09-12T23:09:35.522Z,7.22
2022-09-12T23:14:37.376Z,5.70
2022-09-12T23:19:39.207Z,9.38
2022-09-12T23:24:40.885Z,4.47
2022-09-12T23:29:42.561Z,8.23
2022-09-12T23:34:46.379Z,6.80
2022-09-12T23:39:49.644Z,4.25
2022-09-12T23:44:51.379Z,7.35
2022-09-12T23:49:53.049Z,6.22
2022-09-12T23:54:54.763Z,5.00
2022-09-12T23:59:56.505Z,9.60
